Time;durP1;ratioP1;P1;durP2;ratioP2;P2;SDS_P1;SDS_P2;PMS_P1;PMS_P2;Temp;Humidity;BMP_temperature;BMP_pressure;BME280_temperature;BME280_humidity;BME280_pressure;Samples;Min_cycle;Max_cycle;Signal;HPM_P1;HPM_P2
2023/08/23 00:00:47;;;;;;;10.20;4.38;;;;;;;13.45;100.00;102160.97;5095323;28;20355;-77
2023/08/23 00:03:12;;;;;;;7.95;4.63;;;;;;;13.42;100.00;102158.56;5077175;28;20110;-77
2023/08/23 00:05:38;;;;;;;8.30;4.55;;;;;;;13.39;100.00;102158.78;5095710;28;20120;-77
2023/08/23 00:08:03;;;;;;;8.25;4.40;;;;;;;13.39;100.00;102156.97;5094939;28;20471;-77
2023/08/23 00:10:29;;;;;;;8.38;4.30;;;;;;;13.38;100.00;102162.47;5095246;28;20106;-77
2023/08/23 00:12:56;;;;;;;8.00;4.70;;;;;;;13.37;100.00;102158.91;5094908;28;20043;-77
2023/08/23 00:15:21;;;;;;;7.57;4.35;;;;;;;13.34;100.00;102153.81;5095121;28;20046;-77
2023/08/23 00:17:47;;;;;;;7.68;4.00;;;;;;;13.33;100.00;102157.44;5094997;28;20031;-77
2023/08/23 00:20:12;;;;;;;7.82;4.80;;;;;;;13.33;100.00;102153.91;5076864;28;20028;-77
2023/08/23 00:22:38;;;;;;;10.88;4.20;;;;;;;13.32;100.00;102155.75;5094983;28;20487;-77
2023/08/23 00:25:03;;;;;;;6.05;3.92;;;;;;;13.31;100.00;102156.72;5076812;28;20074;-77
2023/08/23 00:27:29;;;;;;;8.55;4.13;;;;;;;13.29;100.00;102153.31;5095194;28;20057;-78
2023/08/23 00:29:54;;;;;;;5.68;4.00;;;;;;;13.29;100.00;102157.84;5095136;28;20154;-77
2023/08/23 00:32:19;;;;;;;6.68;4.63;;;;;;;13.26;100.00;102150.91;5094703;28;20028;-77
2023/08/23 00:34:45;;;;;;;9.38;4.95;;;;;;;13.26;100.00;102145.56;5094573;28;20055;-78
2023/08/23 00:37:10;;;;;;;6.97;4.60;;;;;;;13.25;100.00;102141.19;5094652;28;20056;-78
2023/08/23 00:39:35;;;;;;;6.35;4.57;;;;;;;13.26;100.00;102137.53;5094357;28;20043;-78
2023/08/23 00:42:01;;;;;;;10.60;4.90;;;;;;;13.27;100.00;102135.72;5094548;28;20388;-78
2023/08/23 00:44:26;;;;;;;6.25;4.20;;;;;;;13.23;100.00;102138.63;5094656;28;20102;-78
2023/08/23 00:46:52;;;;;;;5.80;4.35;;;;;;;13.22;100.00;102139.59;5094595;28;20039;-78
2023/08/23 00:49:17;;;;;;;8.23;4.35;;;;;;;13.20;100.00;102140.72;5094739;28;20381;-78
2023/08/23 00:51:43;;;;;;;5.88;4.32;;;;;;;13.17;100.00;102141.81;5094520;28;20464;-78
2023/08/23 00:54:09;;;;;;;5.32;3.70;;;;;;;13.15;100.00;102143.75;5076306;28;20035;-78
2023/08/23 00:56:36;;;;;;;7.70;3.70;;;;;;;13.15;100.00;102137.56;5094473;28;20030;-78
2023/08/23 00:59:02;;;;;;;4.78;3.50;;;;;;;13.14;100.00;102133.19;5093903;28;20364;-78
2023/08/23 01:01:27;;;;;;;6.28;4.22;;;;;;;13.15;100.00;102135.75;5094418;28;20028;-78
2023/08/23 01:03:56;;;;;;;5.25;3.55;;;;;;;13.17;100.00;102135.63;5094310;28;20118;-78
2023/08/23 01:06:35;;;;;;;6.35;3.80;;;;;;;13.18;100.00;102137.31;5094867;28;20036;-78
2023/08/23 01:09:21;;;;;;;6.45;4.32;;;;;;;13.18;100.00;102143.50;5094097;28;20028;-77
2023/08/23 01:11:52;;;;;;;6.53;4.32;;;;;;;13.20;100.00;102140.72;5094702;28;20028;-78
2023/08/23 01:14:59;;;;;;;5.85;4.00;;;;;;;13.19;100.00;102137.19;5093663;28;20036;-78
2023/08/23 01:17:25;;;;;;;6.30;3.95;;;;;;;13.18;100.00;102135.50;5080885;28;20044;-78
2023/08/23 01:19:51;;;;;;;8.52;4.95;;;;;;;13.17;100.00;102138.28;5094108;28;20032;-78
2023/08/23 01:22:19;;;;;;;7.28;4.50;;;;;;;13.15;100.00;102137.56;5093781;28;20032;-78
2023/08/23 01:24:44;;;;;;;8.30;4.30;;;;;;;13.15;100.00;102140.22;5093545;28;20545;-78
2023/08/23 01:27:10;;;;;;;6.07;4.28;;;;;;;13.14;100.00;102138.53;5093441;28;20028;-78
2023/08/23 01:29:35;;;;;;;5.72;4.40;;;;;;;13.09;100.00;102135.38;5093739;28;20038;-78
2023/08/23 01:32:14;;;;;;;6.85;4.10;;;;;;;13.06;100.00;102131.13;5093673;28;20457;-78
2023/08/23 01:34:46;;;;;;;7.72;4.60;;;;;;;13.03;100.00;102129.56;5094045;28;20032;-78
2023/08/23 01:37:13;;;;;;;6.30;4.22;;;;;;;13.02;100.00;102121.69;5094441;28;20055;-78
2023/08/23 01:39:39;;;;;;;7.85;4.78;;;;;;;12.97;100.00;102116.72;5093221;28;20036;-78
2023/08/23 01:42:05;;;;;;;7.57;4.28;;;;;;;12.94;100.00;102121.44;5092946;28;20032;-78
2023/08/23 01:44:31;;;;;;;7.78;3.95;;;;;;;12.92;100.00;102118.06;5093820;28;20081;-78
2023/08/23 01:46:56;;;;;;;6.63;4.35;;;;;;;12.87;100.00;102105.06;5093770;28;20032;-77
2023/08/23 01:49:21;;;;;;;6.70;4.20;;;;;;;12.86;100.00;102116.72;5093856;28;20081;-78
2023/08/23 01:51:47;;;;;;;5.28;3.97;;;;;;;12.81;100.00;102113.56;5075464;28;20144;-78
2023/08/23 01:54:12;;;;;;;8.57;3.55;;;;;;;12.78;100.00;102119.13;5075014;28;20043;-77
2023/08/23 01:56:37;;;;;;;5.95;4.10;;;;;;;12.76;100.00;102110.41;5093973;28;20032;-80
2023/08/23 01:59:03;;;;;;;8.77;4.60;;;;;;;12.74;100.00;102104.34;5093216;28;20064;-77
2023/08/23 02:01:28;;;;;;;9.75;4.75;;;;;;;12.73;100.00;102105.31;5093773;28;20039;-78
2023/08/23 02:03:53;;;;;;;7.47;4.25;;;;;;;12.70;100.00;102107.25;5093264;28;20505;-78
2023/08/23 02:06:19;;;;;;;5.68;3.30;;;;;;;12.70;100.00;102109.06;5093306;28;20489;-77
2023/08/23 02:08:44;;;;;;;5.13;3.65;;;;;;;12.70;100.00;102098.38;5093045;28;20036;-78
2023/08/23 02:11:09;;;;;;;8.18;4.40;;;;;;;12.72;100.00;102103.59;5092824;28;20471;-79
2023/08/23 02:13:35;;;;;;;6.28;4.70;;;;;;;12.74;100.00;102109.69;5093004;28;20356;-80
2023/08/23 02:16:00;;;;;;;6.40;4.22;;;;;;;12.79;100.00;102113.66;5093304;28;20468;-80
2023/08/23 02:18:25;;;;;;;5.20;3.72;;;;;;;12.86;100.00;102111.38;5093835;28;20036;-79
2023/08/23 02:20:58;;;;;;;6.43;3.70;;;;;;;12.93;100.00;102104.56;5093209;28;20038;-80
2023/08/23 02:23:24;;;;;;;7.80;4.55;;;;;;;13.00;100.00;102105.78;5093286;28;20112;-79
2023/08/23 02:25:50;;;;;;;6.30;4.60;;;;;;;13.08;100.00;102112.28;5093214;28;20024;-79
2023/08/23 02:28:15;;;;;;;6.45;3.83;;;;;;;13.09;100.00;102104.16;5093124;28;20036;-80
2023/08/23 02:30:41;;;;;;;6.80;5.03;;;;;;;13.14;100.00;102106.47;5093342;28;20036;-80
2023/08/23 02:33:06;;;;;;;6.60;4.63;;;;;;;13.13;100.00;102092.25;5091693;28;20031;-79
2023/08/23 02:35:31;;;;;;;9.32;5.60;;;;;;;13.19;100.00;102089.06;5093179;28;20051;-80
2023/08/23 02:37:57;;;;;;;17.30;8.40;;;;;;;13.29;100.00;102086.50;5092964;28;20075;-80
2023/08/23 02:40:23;;;;;;;22.92;8.43;;;;;;;13.39;100.00;102091.94;5093362;28;20044;-80
2023/08/23 02:42:48;;;;;;;16.95;8.32;;;;;;;13.48;100.00;102098.38;5074903;28;20020;-80
2023/08/23 02:45:14;;;;;;;20.60;9.38;;;;;;;13.57;100.00;102093.13;5093024;28;20036;-79
2023/08/23 02:47:39;;;;;;;18.65;9.45;;;;;;;13.68;100.00;102096.72;5092334;28;20032;-79
2023/08/23 02:50:05;;;;;;;18.70;8.77;;;;;;;13.74;100.00;102098.88;5092642;28;20052;-80
2023/08/23 02:52:30;;;;;;;13.95;8.18;;;;;;;13.80;100.00;102095.69;5092824;28;20036;-80
2023/08/23 02:54:56;;;;;;;20.95;9.48;;;;;;;13.87;100.00;102096.03;5074585;28;20405;-80
2023/08/23 02:57:21;;;;;;;15.57;8.20;;;;;;;13.93;100.00;102082.13;5075160;28;20097;-80
2023/08/23 02:59:46;;;;;;;19.17;8.57;;;;;;;13.97;100.00;102083.53;5092739;28;20038;-80
2023/08/23 03:02:12;;;;;;;17.00;8.90;;;;;;;14.04;100.00;102084.72;5093099;28;20365;-80
2023/08/23 03:04:37;;;;;;;21.23;9.68;;;;;;;14.09;100.00;102089.66;5092829;28;20430;-80
2023/08/23 03:07:02;;;;;;;19.88;9.40;;;;;;;14.15;100.00;102085.63;5092473;28;20490;-80
2023/08/23 03:09:28;;;;;;;20.42;9.30;;;;;;;14.17;100.00;102095.22;5092901;28;20533;-80
2023/08/23 03:11:54;;;;;;;18.15;8.98;;;;;;;14.15;100.00;102093.66;5092748;28;20032;-80
2023/08/23 03:14:19;;;;;;;12.07;7.65;;;;;;;14.11;100.00;102087.72;5092379;28;20388;-80
2023/08/23 03:16:44;;;;;;;20.90;9.70;;;;;;;14.06;100.00;102090.78;5092739;28;20460;-80
2023/08/23 03:19:10;;;;;;;19.40;8.35;;;;;;;14.03;100.00;102093.75;5095380;28;20059;-80
2023/08/23 03:21:35;;;;;;;19.10;7.60;;;;;;;14.00;100.00;102099.34;5096895;28;20028;-80
2023/08/23 03:24:00;;;;;;;14.90;7.15;;;;;;;13.94;100.00;102097.16;5096067;28;20089;-80
2023/08/23 03:26:26;;;;;;;16.85;8.20;;;;;;;13.92;100.00;102099.97;5095713;28;20036;-80
2023/08/23 03:28:51;;;;;;;16.20;7.45;;;;;;;13.89;100.00;102094.88;5096206;28;20039;-80
2023/08/23 03:31:17;;;;;;;10.15;6.30;;;;;;;13.87;100.00;102096.88;5095942;28;20115;-80
2023/08/23 03:33:42;;;;;;;12.02;6.80;;;;;;;13.85;100.00;102101.50;5096692;28;20402;-80
2023/08/23 03:36:07;;;;;;;16.08;7.55;;;;;;;13.88;100.00;102100.38;5095578;28;20028;-80
2023/08/23 03:38:33;;;;;;;14.27;7.70;;;;;;;13.89;100.00;102100.25;5096045;28;20052;-80
2023/08/23 03:40:58;;;;;;;15.48;7.80;;;;;;;13.92;100.00;102105.34;5095473;28;20069;-80
2023/08/23 03:43:23;;;;;;;13.00;6.70;;;;;;;13.92;100.00;102099.97;5096110;28;20028;-80
2023/08/23 03:45:50;;;;;;;14.75;6.57;;;;;;;13.91;100.00;102092.94;5095621;28;20157;-80
2023/08/23 03:48:16;;;;;;;9.90;6.05;;;;;;;13.88;100.00;102103.06;5077414;28;20114;-79
2023/08/23 03:50:41;;;;;;;13.68;7.45;;;;;;;13.86;100.00;102103.19;5095590;28;20028;-79
2023/08/23 03:53:06;;;;;;;11.63;5.80;;;;;;;13.81;100.00;102094.72;5077417;28;20024;-79
2023/08/23 03:55:33;;;;;;;10.98;6.30;;;;;;;13.79;100.00;102091.28;5095574;28;20032;-80
2023/08/23 03:57:59;;;;;;;13.68;7.35;;;;;;;13.78;100.00;102094.97;5095104;28;20440;-79
2023/08/23 04:00:24;;;;;;;11.05;6.18;;;;;;;13.77;100.00;102095.94;5094518;28;20028;-80
2023/08/23 04:02:49;;;;;;;13.73;6.45;;;;;;;13.73;100.00;102091.81;5095880;28;20032;-80
2023/08/23 04:05:15;;;;;;;12.95;6.40;;;;;;;13.70;100.00;102086.72;5095370;28;20036;-80
2023/08/23 04:07:40;;;;;;;13.93;6.47;;;;;;;13.66;100.00;102090.63;5095639;28;20059;-80
2023/08/23 04:10:06;;;;;;;14.38;6.95;;;;;;;13.64;100.00;102089.91;5095354;28;20035;-80
2023/08/23 04:12:32;;;;;;;13.85;7.10;;;;;;;13.60;100.00;102084.00;5095128;28;20127;-80
2023/08/23 04:14:57;;;;;;;19.70;8.07;;;;;;;13.58;100.00;102086.81;5095221;28;20130;-80
2023/08/23 04:17:24;;;;;;;14.73;7.28;;;;;;;13.61;100.00;102090.19;5077141;28;20020;-79
2023/08/23 04:19:49;;;;;;;14.90;7.40;;;;;;;13.63;100.00;102085.53;5094948;28;20437;-80
2023/08/23 04:22:14;;;;;;;11.35;7.13;;;;;;;13.64;100.00;102081.91;5095025;28;20060;-80
2023/08/23 04:24:40;;;;;;;16.90;7.20;;;;;;;13.64;100.00;102080.06;5094935;28;20472;-80
2023/08/23 04:27:05;;;;;;;21.27;7.97;;;;;;;13.66;100.00;102083.47;5077598;28;20032;-80
2023/08/23 04:29:30;;;;;;;17.95;8.18;;;;;;;13.70;100.00;102089.41;5094456;28;20044;-79
2023/08/23 04:31:56;;;;;;;21.25;9.25;;;;;;;13.75;100.00;102081.84;5094743;28;20063;-79
2023/08/23 04:34:21;;;;;;;27.30;9.93;;;;;;;13.79;100.00;102077.91;5095081;28;20104;-79
2023/08/23 04:36:48;;;;;;;22.27;10.32;;;;;;;13.84;100.00;102088.22;5094711;28;20072;-78
2023/08/23 04:39:13;;;;;;;16.42;8.43;;;;;;;13.85;100.00;102074.75;5094433;28;20388;-80
2023/08/23 04:41:38;;;;;;;25.95;9.68;;;;;;;13.88;100.00;102079.84;5076777;28;20111;-78
2023/08/23 04:44:04;;;;;;;16.90;7.65;;;;;;;13.89;100.00;102073.50;5094240;28;20028;-78
2023/08/23 04:46:29;;;;;;;21.40;9.82;;;;;;;13.91;100.00;102076.91;5094679;28;20449;-78
2023/08/23 04:48:54;;;;;;;29.08;11.05;;;;;;;13.93;100.00;102074.09;5094301;28;20085;-78
2023/08/23 04:51:21;;;;;;;30.65;12.32;;;;;;;13.98;100.00;102071.84;5076342;28;20545;-80
2023/08/23 04:53:46;;;;;;;27.77;11.85;;;;;;;14.00;100.00;102085.97;5095006;28;20081;-80
2023/08/23 04:56:12;;;;;;;26.45;11.52;;;;;;;14.04;100.00;102082.03;5094401;28;20028;-80
2023/08/23 04:58:38;;;;;;;27.50;11.52;;;;;;;14.06;100.00;102080.09;5094213;28;20036;-80
2023/08/23 05:01:05;;;;;;;32.45;13.13;;;;;;;14.09;100.00;102076.28;5094198;28;20488;-80
2023/08/23 05:03:34;;;;;;;30.65;12.25;;;;;;;14.15;100.00;102083.78;5093885;28;20031;-78
2023/08/23 05:06:00;;;;;;;25.00;12.07;;;;;;;14.18;100.00;102075.50;5094152;28;20030;-79
2023/08/23 05:08:27;;;;;;;41.75;16.17;;;;;;;14.27;100.00;102082.75;5075948;28;20035;-79
2023/08/23 05:10:53;;;;;;;41.00;14.98;;;;;;;14.34;100.00;102085.72;5094560;28;20032;-80
2023/08/23 05:13:19;;;;;;;40.15;14.68;;;;;;;14.39;100.00;102085.31;5094002;28;20538;-78
2023/08/23 05:15:45;;;;;;;56.80;18.38;;;;;;;14.51;100.00;102094.97;5094436;28;20464;-80
2023/08/23 05:18:10;;;;;;;47.22;17.48;;;;;;;14.56;100.00;102092.72;5094026;28;20036;-79
2023/08/23 05:20:36;;;;;;;45.05;18.08;;;;;;;14.63;100.00;102090.41;5094111;28;20032;-79
2023/08/23 05:23:01;;;;;;;56.90;18.88;;;;;;;14.69;100.00;102081.81;5093900;28;20086;-80
2023/08/23 05:25:27;;;;;;;50.42;18.25;;;;;;;14.77;100.00;102081.13;5093912;28;20035;-79
2023/08/23 05:27:52;;;;;;;49.50;18.77;;;;;;;14.84;100.00;102082.28;5093786;28;20039;-80
2023/08/23 05:30:17;;;;;;;54.38;19.23;;;;;;;14.93;100.00;102083.31;5094334;28;20367;-78
2023/08/23 05:32:43;;;;;;;50.30;19.10;;;;;;;15.01;100.00;102088.81;5093606;28;20070;-81
2023/08/23 05:35:08;;;;;;;55.67;19.60;;;;;;;15.12;100.00;102087.84;5093696;28;20475;-79
2023/08/23 05:37:34;;;;;;;61.60;18.88;;;;;;;15.22;100.00;102085.19;5093053;28;20415;-79
2023/08/23 05:39:59;;;;;;;55.65;19.95;;;;;;;15.33;100.00;102090.41;5093549;28;20086;-79
2023/08/23 05:42:24;;;;;;;61.70;19.58;;;;;;;15.43;100.00;102088.56;5093269;28;20028;-79
2023/08/23 05:44:50;;;;;;;60.10;20.30;;;;;;;15.54;100.00;102095.66;5093420;28;20043;-79
2023/08/23 05:47:15;;;;;;;59.50;19.85;;;;;;;15.62;100.00;102098.47;5075706;28;20036;-78
2023/08/23 05:49:42;;;;;;;56.45;19.65;;;;;;;15.72;100.00;102098.47;5093571;28;20040;-79
2023/08/23 05:52:08;;;;;;;79.05;22.77;;;;;;;15.79;100.00;102102.28;5093650;28;20024;-79
2023/08/23 05:54:33;;;;;;;72.75;21.50;;;;;;;15.88;100.00;102100.59;5093389;28;20482;-78
2023/08/23 05:56:59;;;;;;;72.18;22.17;;;;;;;15.95;100.00;102104.38;5093262;28;20380;-79
2023/08/23 05:59:28;;;;;;;74.60;21.33;;;;;;;16.00;100.00;102103.97;5093011;28;20118;-78
2023/08/23 06:01:53;;;;;;;77.55;23.20;;;;;;;16.08;100.00;102104.09;5093568;28;20036;-78
2023/08/23 06:04:19;;;;;;;82.13;23.35;;;;;;;16.20;100.00;102110.97;5093450;28;20032;-78
2023/08/23 06:06:44;;;;;;;81.65;23.10;;;;;;;16.32;100.00;102108.13;5092956;28;20032;-78
2023/08/23 06:09:09;;;;;;;89.82;25.25;;;;;;;16.43;100.00;102109.78;5093175;28;20088;-78
2023/08/23 06:11:35;;;;;;;79.78;24.00;;;;;;;16.55;100.00;102106.75;5092988;28;20029;-80
2023/08/23 06:14:17;;;;;;;90.28;25.20;;;;;;;16.62;100.00;102115.09;5092971;28;20028;-77
2023/08/23 06:16:42;;;;;;;81.97;24.85;;;;;;;16.69;100.00;102118.00;5092916;28;20039;-79
2023/08/23 06:19:07;;;;;;;68.90;23.95;;;;;;;16.69;100.00;102124.25;5092723;28;20024;-79
2023/08/23 06:21:33;;;;;;;66.75;22.65;;;;;;;16.75;100.00;102125.50;5092956;28;20111;-78
2023/08/23 06:23:58;;;;;;;63.05;20.83;;;;;;;16.81;100.00;102124.91;5093317;28;20090;-79
2023/08/23 06:26:24;;;;;;;65.38;22.17;;;;;;;16.81;100.00;102124.91;5093815;28;20464;-78
2023/08/23 06:28:49;;;;;;;69.85;22.15;;;;;;;16.91;100.00;102128.44;5093213;28;20103;-78
2023/08/23 06:31:21;;;;;;;71.18;22.55;;;;;;;16.97;100.00;102126.97;5092614;28;20056;-78
2023/08/23 06:33:46;;;;;;;79.95;24.10;;;;;;;17.02;100.00;102123.84;5092805;28;20032;-79
2023/08/23 06:36:12;;;;;;;63.50;21.40;;;;;;;17.05;100.00;102128.94;5093450;28;20032;-78
2023/08/23 06:38:37;;;;;;;60.95;21.35;;;;;;;17.16;100.00;102126.00;5093214;28;20066;-78
2023/08/23 06:41:02;;;;;;;66.72;21.85;;;;;;;17.24;100.00;102142.25;5092532;28;20123;-78
2023/08/23 06:43:28;;;;;;;65.70;23.00;;;;;;;17.31;100.00;102130.88;5092834;28;20490;-79
2023/08/23 06:45:53;;;;;;;64.05;22.88;;;;;;;17.37;100.00;102133.78;5074783;28;20365;-78
2023/08/23 06:48:19;;;;;;;67.05;23.25;;;;;;;17.49;100.00;102125.50;5092816;28;20510;-79
2023/08/23 06:50:44;;;;;;;55.45;21.52;;;;;;;17.60;100.00;102118.06;5092659;28;20384;-78
2023/08/23 06:53:10;;;;;;;61.72;22.05;;;;;;;17.77;100.00;102134.34;5093921;28;20032;-78
2023/08/23 06:55:41;;;;;;;52.22;21.20;;;;;;;17.90;100.00;102126.75;5097108;28;20399;-78
2023/08/23 06:58:10;;;;;;;59.33;21.60;;;;;;;18.01;100.00;102132.88;5096528;28;20036;-78
2023/08/23 07:00:36;;;;;;;49.13;20.55;;;;;;;18.11;100.00;102130.94;5096268;28;20028;-78
2023/08/23 07:03:02;;;;;;;45.38;19.92;;;;;;;18.16;100.00;102136.69;5096537;28;20068;-78
2023/08/23 07:05:27;;;;;;;46.53;20.40;;;;;;;18.23;100.00;102143.16;5096759;28;20123;-79
2023/08/23 07:07:53;;;;;;;44.08;19.52;;;;;;;18.35;100.00;102132.94;5096055;28;20486;-78
2023/08/23 07:10:20;;;;;;;44.47;19.23;;;;;;;18.48;100.00;102132.50;5096636;28;20461;-78
2023/08/23 07:12:45;;;;;;;48.53;18.83;;;;;;;18.54;100.00;102125.63;5096476;28;20457;-77
2023/08/23 07:15:11;;;;;;;38.90;16.50;;;;;;;18.58;100.00;102130.53;5096221;28;20118;-78
2023/08/23 07:17:36;;;;;;;39.05;16.63;;;;;;;18.56;100.00;102131.72;5096441;28;20388;-78
2023/08/23 07:20:03;;;;;;;36.60;17.63;;;;;;;18.54;100.00;102136.41;5095656;28;20040;-78
2023/08/23 07:22:29;;;;;;;41.70;18.15;;;;;;;18.57;100.00;102139.66;5077895;28;20036;-78
2023/08/23 07:24:54;;;;;;;37.97;19.13;;;;;;;18.73;100.00;102141.56;5095739;28;20031;-77
2023/08/23 07:27:20;;;;;;;33.05;17.42;;;;;;;18.85;100.00;102142.13;5096231;28;20035;-78
2023/08/23 07:29:45;;;;;;;38.83;17.77;;;;;;;18.84;100.00;102149.38;5095985;28;20431;-78
2023/08/23 07:32:11;;;;;;;38.35;17.67;;;;;;;18.96;100.00;102149.09;5095889;28;20445;-76
2023/08/23 07:34:36;;;;;;;33.40;17.70;;;;;;;19.07;100.00;102154.22;5095952;28;20028;-78
2023/08/23 07:37:01;;;;;;;36.10;17.55;;;;;;;19.22;100.00;102153.59;5077578;28;20084;-77
2023/08/23 07:39:27;;;;;;;39.42;18.52;;;;;;;19.27;100.00;102152.09;5096085;28;20083;-78
2023/08/23 07:41:54;;;;;;;42.30;17.67;;;;;;;19.39;100.00;102155.28;5096838;28;20043;-78
2023/08/23 07:44:19;;;;;;;40.60;16.83;;;;;;;19.46;100.00;102153.63;5095686;28;20032;-76
2023/08/23 07:46:44;;;;;;;30.33;16.98;;;;;;;19.58;100.00;102150.63;5095373;28;20025;-79
2023/08/23 07:49:11;;;;;;;33.50;16.10;;;;;;;19.73;100.00;102148.94;5077317;28;20039;-79
2023/08/23 07:51:36;;;;;;;31.95;18.67;;;;;;;19.80;100.00;102152.69;5061573;28;20028;-79
2023/08/23 07:54:03;;;;;;;34.22;15.90;;;;;;;19.89;100.00;102145.44;5078024;28;20119;-76
2023/08/23 07:56:28;;;;;;;34.25;18.25;;;;;;;19.80;100.00;102154.56;5095104;28;20396;-77
2023/08/23 07:58:54;;;;;;;28.60;17.58;;;;;;;19.83;100.00;102159.63;5094906;28;20123;-78
2023/08/23 08:01:19;;;;;;;36.20;18.65;;;;;;;19.94;100.00;102156.56;5077442;28;20457;-79
2023/08/23 08:03:44;;;;;;;33.35;18.70;;;;;;;20.00;100.00;102160.44;5077568;28;20028;-78
2023/08/23 08:06:10;;;;;;;34.92;17.15;;;;;;;20.12;100.00;102171.75;5095598;28;20115;-78
2023/08/23 08:08:39;;;;;;;27.55;16.45;;;;;;;20.30;100.00;102174.25;5095296;28;20074;-79
2023/08/23 08:11:05;;;;;;;32.92;16.77;;;;;;;20.66;100.00;102168.47;5095872;28;20042;-78
2023/08/23 08:13:30;;;;;;;33.03;16.48;;;;;;;21.04;100.00;102174.09;5095640;28;20028;-77
2023/08/23 08:15:56;;;;;;;26.77;16.60;;;;;;;21.25;100.00;102168.06;5096072;28;20081;-77
2023/08/23 08:18:21;;;;;;;31.90;16.50;;;;;;;21.51;100.00;102164.19;5095038;28;20063;-78
2023/08/23 08:20:48;;;;;;;29.52;17.55;;;;;;;21.88;100.00;102168.00;5077395;28;20376;-75
2023/08/23 08:23:13;;;;;;;30.17;18.40;;;;;;;22.02;100.00;102154.47;5094881;28;20460;-76
2023/08/23 08:25:39;;;;;;;42.47;19.27;;;;;;;22.19;100.00;102155.16;5076935;28;20039;-76
2023/08/23 08:28:05;;;;;;;30.38;16.98;;;;;;;22.48;100.00;102155.41;5076829;28;20115;-76
2023/08/23 08:30:30;;;;;;;26.73;15.77;;;;;;;22.61;100.00;102154.75;5076874;28;20028;-79
2023/08/23 08:32:55;;;;;;;22.60;14.98;;;;;;;22.46;100.00;102160.19;5094680;28;20023;-75
2023/08/23 08:35:21;;;;;;;27.55;17.02;;;;;;;22.46;100.00;102157.47;5094744;28;20032;-78
2023/08/23 08:37:46;;;;;;;30.25;17.35;;;;;;;22.38;100.00;102163.84;5094547;28;20367;-75
2023/08/23 08:40:12;;;;;;;24.50;15.57;;;;;;;22.43;100.00;102152.44;5094805;28;20055;-75
2023/08/23 08:42:38;;;;;;;27.77;16.98;;;;;;;22.49;100.00;102163.34;5076183;28;20032;-78
2023/08/23 08:45:05;;;;;;;26.52;16.83;;;;;;;22.62;100.00;102160.00;5094534;28;20040;-78
2023/08/23 08:47:30;;;;;;;27.95;16.40;;;;;;;22.75;100.00;102159.34;5094413;28;20057;-77
2023/08/23 08:49:56;;;;;;;30.25;17.38;;;;;;;22.86;100.00;102160.75;5095234;28;20520;-78
2023/08/23 08:52:25;;;;;;;25.30;15.85;;;;;;;23.12;100.00;102162.97;5094630;28;20036;-78
2023/08/23 08:54:53;;;;;;;26.48;15.70;;;;;;;23.28;100.00;102164.59;5094399;28;20468;-76
2023/08/23 08:57:19;;;;;;;24.42;14.90;;;;;;;23.56;100.00;102161.97;5094326;28;20089;-76
2023/08/23 08:59:46;;;;;;;28.55;15.90;;;;;;;24.01;100.00;102161.78;5094435;28;20030;-78
2023/08/23 09:02:15;;;;;;;24.27;16.33;;;;;;;24.44;100.00;102160.84;5094651;28;20111;-79
2023/08/23 09:04:46;;;;;;;26.35;16.98;;;;;;;24.96;100.00;102158.63;5094688;28;20032;-78
2023/08/23 09:07:12;;;;;;;21.08;15.95;;;;;;;25.38;100.00;102167.59;5076759;28;20508;-75
2023/08/23 09:09:37;;;;;;;24.63;15.23;;;;;;;25.54;100.00;102165.53;5093926;28;20040;-76
2023/08/23 09:12:03;;;;;;;20.90;14.63;;;;;;;25.94;100.00;102160.94;5075917;28;20135;-75
2023/08/23 09:14:29;;;;;;;29.27;16.35;;;;;;;26.58;100.00;102161.31;5093955;28;20031;-77
2023/08/23 09:16:55;;;;;;;25.80;16.30;;;;;;;26.82;100.00;102159.78;5093582;28;20073;-76
2023/08/23 09:19:20;;;;;;;24.13;16.55;;;;;;;27.39;100.00;102157.19;5093764;28;20529;-77
2023/08/23 09:21:50;;;;;;;25.85;18.70;;;;;;;27.48;100.00;102154.22;5093623;28;20032;-77
2023/08/23 09:24:17;;;;;;;25.15;16.15;;;;;;;27.57;100.00;102161.06;5094231;28;20056;-76
2023/08/23 09:26:44;;;;;;;20.02;14.13;;;;;;;28.08;100.00;102164.69;5094095;28;20050;-77
2023/08/23 09:29:09;;;;;;;13.82;10.25;;;;;;;28.19;82.55;102160.41;5093262;28;20426;-77
2023/08/23 09:31:34;;;;;;;13.18;9.70;;;;;;;28.30;89.72;102157.72;5093660;28;20085;-77
2023/08/23 09:34:00;;;;;;;15.18;9.55;;;;;;;28.47;83.84;102152.50;5093284;28;20380;-78
2023/08/23 09:36:30;;;;;;;15.93;9.18;;;;;;;28.51;87.03;102144.66;5094055;28;20442;-77
2023/08/23 09:38:58;;;;;;;14.53;9.37;;;;;;;28.95;75.11;102147.34;5093078;28;20040;-77
2023/08/23 09:41:24;;;;;;;13.13;8.45;;;;;;;28.87;72.41;102143.00;5093894;28;20039;-76
2023/08/23 09:43:53;;;;;;;14.00;8.38;;;;;;;28.81;77.25;102147.53;5093020;28;20028;-77
2023/08/23 09:46:24;;;;;;;12.25;7.43;;;;;;;28.77;86.05;102149.03;5093051;28;20027;-77
2023/08/23 09:48:52;;;;;;;12.68;6.03;;;;;;;28.88;85.63;102141.94;5093363;28;20074;-77
2023/08/23 09:51:21;;;;;;;11.27;6.07;;;;;;;29.26;77.51;102138.09;5093303;28;20020;-77
2023/08/23 09:53:50;;;;;;;12.40;5.00;;;;;;;29.51;67.15;102139.81;5093394;28;20111;-76
2023/08/23 09:56:16;;;;;;;12.20;5.22;;;;;;;29.57;78.63;102129.81;5075047;28;20056;-77
2023/08/23 09:58:41;;;;;;;10.35;4.30;;;;;;;30.00;65.41;102131.44;5093723;28;20117;-77
2023/08/23 10:01:08;;;;;;;7.80;3.70;;;;;;;29.71;64.97;102125.78;5092999;28;20476;-77
2023/08/23 10:03:33;;;;;;;6.68;3.00;;;;;;;29.50;71.91;102125.28;5093315;28;20035;-77
2023/08/23 10:05:59;;;;;;;8.55;3.40;;;;;;;28.78;68.83;102126.06;5093203;28;20024;-77
2023/08/23 10:08:26;;;;;;;12.52;2.45;;;;;;;28.18;62.52;102131.34;5093485;28;20472;-76
2023/08/23 10:10:54;;;;;;;5.43;2.38;;;;;;;27.42;67.27;102134.91;5093236;28;20036;-77
2023/08/23 10:13:21;;;;;;;8.50;1.90;;;;;;;26.73;69.00;102129.16;5092680;28;20055;-77
2023/08/23 10:15:48;;;;;;;6.45;1.90;;;;;;;26.05;76.28;102129.53;5093104;28;20111;-77
2023/08/23 10:18:15;;;;;;;6.38;1.63;;;;;;;26.27;70.40;102129.25;5092566;28;20028;-77
2023/08/23 10:20:41;;;;;;;4.63;1.75;;;;;;;26.68;68.77;102130.88;5092955;28;20480;-76
2023/08/23 10:23:15;;;;;;;4.43;1.27;;;;;;;27.31;65.53;102127.38;5093043;28;20484;-76
2023/08/23 10:25:42;;;;;;;3.53;1.67;;;;;;;27.98;67.76;102129.66;5093229;28;20097;-76
2023/08/23 10:28:08;;;;;;;2.08;1.10;;;;;;;28.52;55.44;102110.78;5095964;28;20115;-76
2023/08/23 10:30:38;;;;;;;2.75;1.30;;;;;;;28.65;55.60;102121.59;5096923;28;20469;-76
2023/08/23 10:33:12;;;;;;;4.68;1.70;;;;;;;28.74;53.62;102113.91;5097432;28;20028;-77
2023/08/23 10:35:39;;;;;;;5.97;1.95;;;;;;;29.21;57.20;102113.28;5096923;28;20032;-77
2023/08/23 10:38:06;;;;;;;4.78;1.60;;;;;;;29.66;54.75;102120.16;5096983;28;20062;-77
2023/08/23 10:40:32;;;;;;;6.82;1.50;;;;;;;29.55;54.49;102111.69;5097546;28;20054;-76
2023/08/23 10:43:01;;;;;;;5.53;1.60;;;;;;;29.70;52.56;102118.63;5097392;28;20024;-76
2023/08/23 10:45:27;;;;;;;6.60;1.40;;;;;;;29.96;52.26;102113.78;5096777;28;20052;-77
2023/08/23 10:47:53;;;;;;;4.20;1.60;;;;;;;29.93;48.32;102114.25;5096484;28;20062;-76
2023/08/23 10:50:19;;;;;;;2.33;1.13;;;;;;;29.79;48.57;102119.94;5096724;28;20084;-76
2023/08/23 10:52:48;;;;;;;2.83;1.20;;;;;;;29.71;46.83;102134.84;5096576;28;20050;-77
2023/08/23 10:55:14;;;;;;;3.25;1.20;;;;;;;29.36;47.33;102129.28;5096671;28;20024;-77
2023/08/23 10:57:39;;;;;;;3.65;1.30;;;;;;;29.20;48.98;102123.38;5096898;28;20076;-77
2023/08/23 11:00:05;;;;;;;6.72;1.30;;;;;;;29.38;49.34;102124.44;5078440;28;20032;-77
2023/08/23 11:02:33;;;;;;;4.55;1.27;;;;;;;29.08;48.33;102121.66;5096379;28;20480;-77
2023/08/23 11:04:58;;;;;;;2.25;1.52;;;;;;;28.36;52.28;102122.31;5096111;28;20526;-77